createdAt,value
2023-03-17T00:01:54.033Z,60.70
2023-03-17T00:04:22.425Z,60.70
2023-03-17T00:06:49.243Z,60.80
2023-03-17T00:09:18.156Z,60.80
2023-03-17T00:11:46.023Z,60.90
2023-03-17T00:14:13.170Z,60.90
2023-03-17T00:16:44.799Z,60.90
2023-03-17T00:19:22.420Z,61.00
2023-03-17T00:21:49.773Z,61.10
2023-03-17T00:24:17.117Z,60.90
2023-03-17T00:26:43.930Z,60.90
2023-03-17T00:29:11.116Z,60.90
2023-03-17T00:31:39.453Z,60.90
2023-03-17T00:34:07.403Z,60.80
2023-03-17T00:36:34.431Z,60.70
2023-03-17T00:39:01.449Z,60.60
2023-03-17T00:41:29.584Z,60.50
2023-03-17T00:43:57.198Z,60.60
2023-03-17T00:46:31.107Z,60.70
2023-03-17T00:48:57.881Z,60.80
2023-03-17T00:51:24.494Z,60.80
2023-03-17T00:53:51.124Z,60.80
2023-03-17T00:56:20.825Z,60.90
2023-03-17T00:58:48.875Z,61.10
2023-03-17T01:01:16.106Z,61.20
2023-03-17T01:03:42.850Z,61.30
2023-03-17T01:06:12.909Z,61.40
2023-03-17T01:08:40.902Z,61.50
2023-03-17T01:11:14.637Z,61.50
2023-03-17T01:13:41.635Z,61.50
2023-03-17T01:16:12.420Z,61.50
2023-03-17T01:18:39.963Z,61.60
2023-03-17T01:21:07.731Z,61.50
2023-03-17T01:23:34.418Z,61.60
2023-03-17T01:26:01.619Z,61.70
2023-03-17T01:28:28.427Z,61.80
2023-03-17T01:30:55.521Z,61.80
2023-03-17T01:33:22.220Z,61.90
2023-03-17T01:35:50.649Z,61.90
2023-03-17T01:38:17.833Z,62.00
2023-03-17T01:40:49.409Z,62.10
2023-03-17T01:43:20.633Z,62.20
2023-03-17T01:46:06.710Z,62.20
2023-03-17T01:48:44.491Z,62.30
2023-03-17T01:51:21.061Z,62.40
2023-03-17T01:53:51.067Z,62.50
2023-03-17T01:56:18.579Z,62.50
2023-03-17T01:58:47.434Z,62.50
2023-03-17T02:01:14.142Z,62.50
2023-03-17T02:03:42.109Z,62.50
2023-03-17T02:06:09.857Z,62.50
2023-03-17T02:08:36.456Z,62.50
2023-03-17T02:11:05.075Z,62.40
2023-03-17T02:13:32.926Z,62.60
2023-03-17T02:15:59.649Z,62.50
2023-03-17T02:18:26.385Z,62.50
2023-03-17T02:21:27.839Z,62.60
2023-03-17T02:23:56.168Z,62.70
2023-03-17T02:26:25.934Z,62.70
2023-03-17T02:28:53.695Z,62.80
2023-03-17T02:31:21.132Z,62.80
2023-03-17T02:33:47.803Z,62.80
2023-03-17T02:36:14.623Z,62.80
2023-03-17T02:38:41.263Z,62.90
2023-03-17T02:41:09.656Z,63.00
2023-03-17T02:43:37.277Z,63.10
2023-03-17T02:46:05.749Z,63.10
2023-03-17T02:48:34.207Z,63.20
2023-03-17T02:51:00.841Z,63.20
2023-03-17T02:53:27.443Z,63.20
2023-03-17T02:55:54.069Z,63.20
2023-03-17T02:58:21.089Z,63.20
2023-03-17T03:00:48.797Z,63.20
2023-03-17T03:03:16.113Z,63.20
2023-03-17T03:05:42.748Z,63.20
2023-03-17T03:08:09.665Z,63.10
2023-03-17T03:10:36.419Z,63.10
2023-03-17T03:13:03.101Z,63.10
2023-03-17T03:15:29.815Z,63.00
2023-03-17T03:17:56.609Z,63.00
2023-03-17T03:20:23.229Z,63.00
2023-03-17T03:22:49.839Z,63.00
2023-03-17T03:25:17.053Z,62.90
2023-03-17T03:27:43.686Z,62.90
2023-03-17T03:30:11.573Z,62.90
2023-03-17T03:32:38.284Z,62.90
2023-03-17T03:35:05.343Z,62.90
2023-03-17T03:37:31.951Z,62.90
2023-03-17T03:39:58.523Z,62.90
2023-03-17T03:42:25.121Z,63.00
2023-03-17T03:44:52.539Z,63.10
2023-03-17T03:47:19.113Z,63.00
2023-03-17T03:49:46.152Z,63.10
2023-03-17T03:52:12.771Z,63.00
2023-03-17T03:54:39.681Z,63.00
2023-03-17T03:57:06.523Z,63.00
2023-03-17T03:59:33.158Z,63.00
2023-03-17T04:01:59.716Z,62.90
2023-03-17T04:04:26.421Z,62.90
2023-03-17T04:06:53.071Z,62.90
2023-03-17T04:09:19.768Z,62.90
2023-03-17T04:11:46.369Z,62.90
2023-03-17T04:14:13.255Z,62.90
2023-03-17T04:16:42.845Z,62.90
2023-03-17T04:19:11.086Z,62.90
2023-03-17T04:21:37.782Z,63.00
2023-03-17T04:24:05.342Z,63.00
2023-03-17T04:26:32.536Z,63.10
2023-03-17T04:28:59.166Z,63.20
2023-03-17T04:31:26.231Z,63.20
2023-03-17T04:33:52.998Z,63.30
2023-03-17T04:36:24.282Z,63.30
2023-03-17T04:38:50.944Z,63.50
2023-03-17T04:41:17.698Z,63.60
2023-03-17T04:43:45.021Z,63.70
2023-03-17T04:46:11.729Z,63.80
2023-03-17T04:48:38.515Z,64.00
2023-03-17T04:51:05.352Z,64.00
2023-03-17T04:53:32.544Z,64.10
2023-03-17T04:55:59.155Z,64.20
2023-03-17T04:58:30.752Z,64.30
2023-03-17T05:00:58.384Z,64.40
2023-03-17T05:03:27.550Z,64.50
2023-03-17T05:05:54.560Z,64.60
2023-03-17T05:08:21.193Z,64.80
2023-03-17T05:10:47.784Z,64.90
2023-03-17T05:13:14.515Z,64.90
2023-03-17T05:15:44.162Z,64.90
2023-03-17T05:18:11.035Z,65.00
2023-03-17T05:20:37.697Z,65.10
2023-03-17T05:23:04.340Z,65.10
2023-03-17T05:25:30.922Z,65.20
2023-03-17T05:27:58.607Z,65.40
2023-03-17T05:30:25.496Z,65.50
2023-03-17T05:32:52.218Z,65.70
2023-03-17T05:35:19.012Z,65.80
2023-03-17T05:37:46.125Z,65.90
2023-03-17T05:40:14.565Z,66.10
2023-03-17T05:42:41.865Z,66.20
2023-03-17T05:45:09.510Z,66.20
2023-03-17T05:47:36.296Z,66.40
2023-03-17T05:50:05.203Z,66.40
2023-03-17T05:52:32.155Z,66.50
2023-03-17T05:54:58.767Z,66.40
2023-03-17T05:57:25.431Z,66.40
2023-03-17T05:59:52.040Z,66.40
2023-03-17T06:02:18.737Z,66.40
2023-03-17T06:04:45.688Z,66.30
2023-03-17T06:07:13.003Z,66.40
2023-03-17T06:09:40.023Z,66.40
2023-03-17T06:12:07.075Z,66.40
2023-03-17T06:14:33.790Z,66.40
2023-03-17T06:17:00.421Z,66.40
2023-03-17T06:19:27.047Z,66.20
2023-03-17T06:21:53.682Z,66.00
2023-03-17T06:24:20.513Z,65.80
2023-03-17T06:26:47.108Z,65.40
2023-03-17T06:29:13.739Z,64.50
2023-03-17T06:31:40.738Z,61.40
2023-03-17T06:34:08.184Z,57.10
2023-03-17T06:36:36.912Z,54.30
2023-03-17T06:39:04.857Z,53.30
2023-03-17T06:41:31.467Z,53.10
2023-03-17T06:43:58.117Z,52.90
2023-03-17T06:46:24.740Z,53.20
2023-03-17T06:48:51.362Z,53.90
2023-03-17T06:51:17.966Z,54.60
2023-03-17T06:53:44.619Z,55.20
2023-03-17T06:56:23.557Z,55.50
2023-03-17T06:58:54.109Z,55.80
2023-03-17T07:01:20.765Z,56.10
2023-03-17T07:03:47.505Z,56.20
2023-03-17T07:06:14.357Z,56.30
2023-03-17T07:08:41.696Z,56.30
2023-03-17T07:11:08.336Z,56.50
2023-03-17T07:13:37.153Z,56.40
2023-03-17T07:16:03.945Z,56.30
2023-03-17T07:18:32.054Z,56.20
2023-03-17T07:21:01.026Z,56.20
2023-03-17T07:23:28.615Z,55.90
2023-03-17T07:25:55.569Z,55.80
2023-03-17T07:28:22.573Z,55.80
2023-03-17T07:30:50.119Z,55.60
2023-03-17T07:33:17.851Z,55.50
2023-03-17T07:35:44.536Z,55.30
2023-03-17T07:38:11.949Z,55.20
2023-03-17T07:40:39.061Z,55.00
2023-03-17T07:43:05.769Z,54.80
2023-03-17T07:45:33.392Z,54.60
2023-03-17T07:48:01.051Z,54.40
2023-03-17T07:50:27.672Z,54.00
2023-03-17T07:52:54.292Z,53.90
2023-03-17T07:55:20.917Z,53.70
2023-03-17T07:57:47.559Z,53.50
2023-03-17T08:00:14.875Z,53.10
2023-03-17T08:02:41.776Z,52.70
2023-03-17T08:05:09.505Z,52.50
2023-03-17T08:07:40.559Z,52.40
2023-03-17T08:10:08.166Z,52.30
2023-03-17T08:12:35.432Z,52.10
2023-03-17T08:15:02.523Z,51.50
2023-03-17T08:17:29.110Z,51.60
2023-03-17T08:19:56.678Z,51.20
2023-03-17T08:22:24.759Z,50.80
2023-03-17T08:24:51.898Z,50.50
2023-03-17T08:27:20.641Z,50.20
2023-03-17T08:29:48.155Z,50.00
2023-03-17T08:32:15.113Z,49.80
2023-03-17T08:34:44.262Z,49.60
2023-03-17T08:37:11.600Z,49.40
2023-03-17T08:39:38.921Z,49.00
2023-03-17T08:42:06.018Z,48.60
2023-03-17T08:44:33.248Z,48.40
2023-03-17T08:47:00.085Z,48.10
2023-03-17T08:49:27.217Z,48.00
2023-03-17T08:51:54.401Z,47.90
2023-03-17T08:54:21.165Z,47.90
2023-03-17T08:56:47.774Z,47.60
2023-03-17T08:59:16.816Z,47.30
2023-03-17T09:01:45.391Z,47.30
2023-03-17T09:04:11.991Z,47.30
2023-03-17T09:06:48.901Z,47.10
2023-03-17T09:09:22.164Z,47.20
2023-03-17T09:11:48.820Z,47.90
2023-03-17T09:14:15.449Z,47.30
2023-03-17T09:16:42.308Z,46.90
2023-03-17T09:19:08.926Z,46.50
2023-03-17T09:21:35.594Z,46.30
2023-03-17T09:24:02.762Z,46.30
2023-03-17T09:26:29.599Z,46.40
2023-03-17T09:28:56.378Z,46.50
2023-03-17T09:31:23.051Z,46.70
2023-03-17T09:33:49.741Z,46.70
2023-03-17T09:36:16.342Z,46.50
2023-03-17T09:38:43.057Z,46.30
2023-03-17T09:41:42.400Z,46.30
2023-03-17T09:44:28.661Z,46.00
2023-03-17T09:47:27.001Z,46.00
2023-03-17T09:50:01.087Z,45.90
2023-03-17T09:52:31.710Z,45.70
2023-03-17T09:54:59.964Z,45.30
2023-03-17T09:57:31.456Z,45.30
2023-03-17T10:00:09.096Z,44.40
2023-03-17T10:02:37.749Z,43.80
2023-03-17T10:05:28.877Z,44.00
2023-03-17T10:08:29.617Z,44.10
2023-03-17T10:11:01.824Z,43.70
2023-03-17T10:13:56.647Z,43.50
2023-03-17T10:16:36.815Z,42.90
2023-03-17T10:19:15.973Z,43.30
2023-03-17T10:21:52.432Z,43.20
2023-03-17T10:24:19.876Z,42.50
2023-03-17T10:26:50.804Z,42.70
2023-03-17T10:29:23.990Z,42.10
2023-03-17T10:31:53.053Z,41.60
2023-03-17T10:34:24.009Z,41.50
2023-03-17T10:36:56.065Z,41.20
2023-03-17T10:39:24.602Z,40.80
2023-03-17T10:41:59.700Z,41.10
2023-03-17T10:44:50.708Z,40.70
2023-03-17T10:47:35.179Z,41.10
2023-03-17T10:50:26.213Z,41.20
2023-03-17T10:53:03.062Z,40.70
2023-03-17T10:55:37.373Z,40.40
2023-03-17T10:58:46.690Z,39.80
2023-03-17T11:01:38.802Z,39.90
2023-03-17T11:04:33.920Z,40.00
2023-03-17T11:07:15.331Z,39.90
2023-03-17T11:09:42.188Z,39.40
2023-03-17T11:12:28.793Z,39.60
2023-03-17T11:15:00.723Z,39.20
2023-03-17T11:17:53.485Z,39.10
2023-03-17T11:20:34.992Z,39.20
2023-03-17T11:23:17.854Z,38.90
2023-03-17T11:25:49.578Z,38.70
2023-03-17T11:28:26.335Z,38.80
2023-03-17T11:31:09.349Z,38.20
2023-03-17T11:33:42.096Z,38.40
2023-03-17T11:36:36.765Z,38.30
2023-03-17T11:39:13.600Z,37.70
2023-03-17T11:41:44.899Z,37.20
2023-03-17T11:44:49.207Z,37.60
2023-03-17T11:47:50.319Z,37.40
2023-03-17T11:50:34.274Z,37.60
2023-03-17T11:53:30.952Z,37.20
2023-03-17T11:56:20.371Z,37.20
2023-03-17T11:58:54.709Z,36.50
2023-03-17T12:01:29.613Z,36.10
2023-03-17T12:04:08.451Z,35.90
2023-03-17T12:06:42.526Z,36.00
2023-03-17T12:09:33.171Z,35.90
2023-03-17T12:12:01.935Z,35.60
2023-03-17T12:14:30.623Z,35.80
2023-03-17T12:17:12.345Z,35.30
2023-03-17T12:19:42.510Z,34.60
2023-03-17T12:22:26.692Z,34.80
2023-03-17T12:25:19.509Z,35.10
2023-03-17T12:28:11.051Z,35.20
2023-03-17T12:30:49.610Z,35.20
2023-03-17T12:33:43.807Z,35.10
2023-03-17T12:36:17.525Z,35.00
2023-03-17T12:38:52.333Z,35.40
2023-03-17T12:41:40.347Z,35.30
2023-03-17T12:44:39.009Z,35.50
2023-03-17T12:47:36.283Z,35.20
2023-03-17T12:50:15.868Z,35.10
2023-03-17T12:52:57.286Z,35.30
2023-03-17T12:55:27.255Z,35.60
2023-03-17T12:58:02.089Z,35.60
2023-03-17T13:00:33.309Z,35.30
2023-03-17T13:03:27.893Z,35.60
2023-03-17T13:06:00.682Z,35.60
2023-03-17T13:08:33.722Z,35.00
2023-03-17T13:11:38.618Z,34.80
2023-03-17T13:14:15.511Z,35.40
2023-03-17T13:16:47.449Z,35.00
2023-03-17T13:19:22.586Z,34.80
2023-03-17T13:21:50.792Z,34.70
2023-03-17T13:24:17.985Z,34.20
2023-03-17T13:27:02.275Z,34.70
2023-03-17T13:29:32.271Z,34.20
2023-03-17T13:32:17.293Z,34.30
2023-03-17T13:34:55.840Z,34.40
2023-03-17T13:37:30.167Z,33.80
2023-03-17T13:40:21.376Z,33.70
2023-03-17T13:43:16.235Z,33.70
2023-03-17T13:45:44.827Z,34.40
2023-03-17T13:48:44.174Z,34.30
2023-03-17T13:51:26.263Z,34.40
2023-03-17T13:54:26.391Z,34.10
2023-03-17T13:57:00.074Z,34.10
2023-03-17T13:59:55.695Z,33.80
2023-03-17T14:02:26.027Z,33.50
2023-03-17T14:04:58.754Z,33.40
2023-03-17T14:07:31.145Z,33.20
2023-03-17T14:10:04.780Z,34.20
2023-03-17T14:12:51.119Z,33.40
2023-03-17T14:15:34.946Z,33.50
2023-03-17T14:18:14.196Z,33.30
2023-03-17T14:20:41.048Z,33.30
2023-03-17T14:23:09.496Z,33.50
2023-03-17T14:25:38.838Z,33.50
2023-03-17T14:28:11.468Z,33.40
2023-03-17T14:30:38.809Z,33.50
2023-03-17T14:33:21.946Z,33.80
2023-03-17T14:35:51.685Z,33.80
2023-03-17T14:38:30.368Z,33.80
2023-03-17T14:41:04.247Z,33.70
2023-03-17T14:43:31.972Z,33.90
2023-03-17T14:46:04.861Z,33.80
2023-03-17T14:48:40.240Z,33.40
2023-03-17T14:51:23.878Z,33.50
2023-03-17T14:53:52.757Z,33.80
2023-03-17T14:56:31.286Z,34.00
2023-03-17T14:59:06.486Z,33.90
2023-03-17T15:01:43.619Z,33.90
2023-03-17T15:04:12.758Z,34.10
2023-03-17T15:06:51.493Z,34.30
2023-03-17T15:09:36.150Z,33.90
2023-03-17T15:12:17.976Z,34.20
2023-03-17T15:14:46.428Z,34.50
2023-03-17T15:17:23.065Z,34.40
2023-03-17T15:19:52.604Z,34.30
2023-03-17T15:22:34.326Z,34.30
2023-03-17T15:25:02.372Z,34.50
2023-03-17T15:27:30.750Z,34.80
2023-03-17T15:29:57.487Z,35.10
2023-03-17T15:32:26.124Z,35.20
2023-03-17T15:34:56.541Z,35.60
2023-03-17T15:37:29.544Z,35.80
2023-03-17T15:39:56.351Z,36.00
2023-03-17T15:42:42.128Z,36.30
2023-03-17T15:45:09.260Z,36.60
2023-03-17T15:47:38.884Z,36.70
2023-03-17T15:50:16.353Z,36.90
2023-03-17T15:52:44.499Z,37.10
2023-03-17T15:55:21.631Z,37.30
2023-03-17T15:57:54.850Z,37.60
2023-03-17T16:00:24.029Z,37.70
2023-03-17T16:02:56.170Z,37.90
2023-03-17T16:05:34.928Z,38.20
2023-03-17T16:08:02.182Z,38.30
2023-03-17T16:10:32.134Z,38.60
2023-03-17T16:12:59.240Z,38.80
2023-03-17T16:15:28.389Z,38.90
2023-03-17T16:17:59.195Z,38.90
2023-03-17T16:20:44.027Z,39.20
2023-03-17T16:23:19.734Z,39.40
2023-03-17T16:25:46.789Z,39.50
2023-03-17T16:28:17.740Z,39.60
2023-03-17T16:30:45.032Z,39.70
2023-03-17T16:33:36.454Z,39.80
2023-03-17T16:36:04.755Z,40.10
2023-03-17T16:38:33.999Z,40.30
2023-03-17T16:41:22.411Z,40.90
2023-03-17T16:44:01.141Z,41.10
2023-03-17T16:46:34.059Z,41.30
2023-03-17T16:49:01.835Z,41.50
2023-03-17T16:51:28.432Z,41.90
2023-03-17T16:53:55.138Z,42.10
2023-03-17T16:56:24.666Z,42.40
2023-03-17T16:58:51.405Z,43.10
2023-03-17T17:01:21.269Z,43.80
2023-03-17T17:03:48.526Z,44.40
2023-03-17T17:06:15.433Z,44.70
2023-03-17T17:08:43.949Z,45.00
2023-03-17T17:11:12.940Z,45.60
2023-03-17T17:13:44.871Z,45.90
2023-03-17T17:16:33.570Z,46.20
2023-03-17T17:19:01.182Z,46.20
2023-03-17T17:21:28.425Z,46.20
2023-03-17T17:23:55.873Z,46.70
2023-03-17T17:26:23.004Z,47.10
2023-03-17T17:28:49.790Z,47.40
2023-03-17T17:31:16.708Z,47.70
2023-03-17T17:33:43.379Z,48.10
2023-03-17T17:36:16.342Z,48.50
2023-03-17T17:38:43.213Z,49.00
2023-03-17T17:41:11.208Z,49.10
2023-03-17T17:43:38.414Z,49.70
2023-03-17T17:46:11.424Z,50.00
2023-03-17T17:48:38.290Z,50.60
2023-03-17T17:51:05.110Z,50.40
2023-03-17T17:53:31.756Z,50.60
2023-03-17T17:55:58.770Z,50.90
2023-03-17T17:58:26.518Z,51.10
2023-03-17T18:00:57.536Z,51.50
2023-03-17T18:03:25.534Z,51.80
2023-03-17T18:05:54.429Z,52.20
2023-03-17T18:08:21.140Z,52.70
2023-03-17T18:10:49.185Z,52.80
2023-03-17T18:13:17.165Z,52.90
2023-03-17T18:15:43.817Z,53.20
2023-03-17T18:18:10.421Z,53.30
2023-03-17T18:20:38.139Z,53.50
2023-03-17T18:23:04.795Z,53.90
2023-03-17T18:25:31.415Z,54.50
2023-03-17T18:28:00.848Z,54.70
2023-03-17T18:30:30.824Z,55.10
2023-03-17T18:33:18.856Z,55.40
2023-03-17T18:35:50.906Z,55.60
2023-03-17T18:38:17.745Z,55.80
2023-03-17T18:40:44.705Z,55.60
2023-03-17T18:43:11.341Z,55.80
2023-03-17T18:45:38.038Z,55.80
2023-03-17T18:48:04.700Z,55.80
2023-03-17T18:50:31.496Z,56.00
2023-03-17T18:52:58.286Z,56.10
2023-03-17T18:55:24.974Z,56.30
2023-03-17T18:57:51.905Z,56.40
2023-03-17T19:00:18.916Z,56.50
2023-03-17T19:02:46.367Z,56.70
2023-03-17T19:05:14.248Z,57.00
2023-03-17T19:07:41.032Z,57.20
2023-03-17T19:10:09.767Z,57.40
2023-03-17T19:12:37.127Z,57.50
2023-03-17T19:15:06.463Z,57.80
2023-03-17T19:17:33.365Z,58.00
2023-03-17T19:20:00.086Z,58.10
2023-03-17T19:22:27.014Z,58.10
2023-03-17T19:24:53.745Z,58.20
2023-03-17T19:27:20.674Z,58.40
2023-03-17T19:29:47.414Z,58.50
2023-03-17T19:32:14.118Z,58.60
2023-03-17T19:34:41.349Z,58.80
2023-03-17T19:37:08.288Z,58.90
2023-03-17T19:39:35.205Z,59.00
2023-03-17T19:42:01.839Z,59.30
2023-03-17T19:44:28.751Z,59.40
2023-03-17T19:46:55.435Z,59.50
2023-03-17T19:49:22.406Z,59.70
2023-03-17T19:51:49.467Z,59.70
2023-03-17T19:54:16.500Z,59.80
2023-03-17T19:56:44.511Z,59.90
2023-03-17T19:59:11.182Z,60.10
2023-03-17T20:01:38.461Z,60.10
2023-03-17T20:04:06.837Z,60.30
2023-03-17T20:06:34.652Z,60.50
2023-03-17T20:09:03.940Z,60.50
2023-03-17T20:11:33.787Z,60.60
2023-03-17T20:14:01.581Z,60.70
2023-03-17T20:16:30.312Z,60.90
2023-03-17T20:18:56.944Z,60.80
2023-03-17T20:21:23.574Z,60.90
2023-03-17T20:23:50.358Z,61.00
2023-03-17T20:26:17.617Z,61.10
2023-03-17T20:28:44.256Z,61.10
2023-03-17T20:31:10.865Z,61.20
2023-03-17T20:33:37.532Z,61.20
2023-03-17T20:36:05.000Z,61.30
2023-03-17T20:38:33.334Z,61.40
2023-03-17T20:41:11.717Z,61.40
2023-03-17T20:43:38.867Z,61.80
2023-03-17T20:46:08.665Z,61.60
2023-03-17T20:48:37.196Z,61.70
2023-03-17T20:51:05.587Z,61.70
2023-03-17T20:53:33.353Z,61.60
2023-03-17T20:56:00.203Z,61.80
2023-03-17T20:58:27.619Z,61.90
2023-03-17T21:00:54.996Z,62.00
2023-03-17T21:03:21.737Z,62.20
2023-03-17T21:05:48.340Z,62.20
2023-03-17T21:08:15.493Z,62.30
2023-03-17T21:10:42.135Z,62.30
2023-03-17T21:13:08.904Z,62.40
2023-03-17T21:15:36.938Z,62.50
2023-03-17T21:18:03.764Z,62.60
2023-03-17T21:20:31.048Z,62.60
2023-03-17T21:22:57.795Z,62.70
2023-03-17T21:25:24.646Z,62.80
2023-03-17T21:27:52.168Z,62.90
2023-03-17T21:30:18.870Z,63.00
2023-03-17T21:32:45.536Z,63.10
2023-03-17T21:35:12.621Z,63.20
2023-03-17T21:37:39.224Z,63.20
2023-03-17T21:40:06.901Z,63.30
2023-03-17T21:42:34.220Z,63.30
2023-03-17T21:45:01.016Z,63.30
2023-03-17T21:47:29.842Z,63.40
2023-03-17T21:49:57.838Z,63.50
2023-03-17T21:52:25.198Z,63.50
2023-03-17T21:54:51.924Z,63.60
2023-03-17T21:57:18.714Z,63.80
2023-03-17T21:59:45.564Z,63.80
2023-03-17T22:02:13.055Z,63.80
2023-03-17T22:04:41.522Z,63.90
2023-03-17T22:07:08.437Z,64.00
2023-03-17T22:09:35.106Z,64.00
2023-03-17T22:12:02.024Z,64.10
2023-03-17T22:14:28.632Z,64.10
2023-03-17T22:16:55.468Z,64.20
2023-03-17T22:19:22.564Z,64.20
2023-03-17T22:21:50.262Z,64.30
2023-03-17T22:24:17.291Z,64.40
2023-03-17T22:26:44.205Z,64.40
2023-03-17T22:29:10.850Z,64.50
2023-03-17T22:31:37.530Z,64.60
2023-03-17T22:34:04.296Z,64.70
2023-03-17T22:36:31.954Z,64.70
2023-03-17T22:38:59.660Z,64.70
2023-03-17T22:41:28.631Z,64.80
2023-03-17T22:43:55.594Z,65.00
2023-03-17T22:46:22.512Z,65.00
2023-03-17T22:48:50.054Z,65.00
2023-03-17T22:51:19.451Z,65.10
2023-03-17T22:53:46.141Z,65.10
2023-03-17T22:56:14.026Z,65.10
2023-03-17T22:58:41.286Z,65.20
2023-03-17T23:01:08.708Z,65.30
2023-03-17T23:03:36.114Z,65.40
2023-03-17T23:06:04.835Z,65.40
2023-03-17T23:08:35.115Z,65.50
2023-03-17T23:11:08.548Z,65.60
2023-03-17T23:13:35.466Z,65.70
2023-03-17T23:16:03.260Z,65.20
2023-03-17T23:18:30.078Z,65.50
2023-03-17T23:20:57.304Z,65.60
2023-03-17T23:23:24.333Z,65.70
2023-03-17T23:25:51.886Z,65.80
2023-03-17T23:28:19.183Z,65.90
2023-03-17T23:30:46.614Z,66.00
2023-03-17T23:33:14.846Z,66.00
2023-03-17T23:35:41.562Z,66.10
2023-03-17T23:38:08.688Z,66.20
2023-03-17T23:40:35.944Z,66.30
2023-03-17T23:43:02.664Z,66.30
2023-03-17T23:45:29.476Z,66.40
2023-03-17T23:47:57.421Z,66.40
2023-03-17T23:50:24.081Z,66.40
2023-03-17T23:52:50.783Z,66.60
2023-03-17T23:55:17.441Z,66.60
2023-03-17T23:57:44.272Z,66.80
